TimeCDT,TemperatureF,Dew PointF,Humidity,Sea Level PressureIn,VisibilityMPH,Wind Direction,Wind SpeedMPH,Gust SpeedMPH,PrecipitationIn,Events,Conditions,WindDirDegrees,DateUTC
12:15 AM,67.5,67.5,100,30.02,10.0,Calm,Calm,-,N/A,,Clear,0,2012-10-06 05:15:00
12:35 AM,67.3,67.3,100,30.02,10.0,Calm,Calm,-,N/A,,Clear,0,2012-10-06 05:35:00
12:55 AM,67.1,67.1,100,30.02,10.0,Calm,Calm,-,N/A,,Clear,0,2012-10-06 05:55:00
1:15 AM,67.1,67.1,100,30.02,10.0,Calm,Calm,-,N/A,,Clear,0,2012-10-06 06:15:00
1:55 AM,66.4,66.4,100,30.03,0.8,Calm,Calm,-,N/A,,Mist,0,2012-10-06 06:55:00
2:15 AM,66.4,66.4,100,30.02,0.8,Calm,Calm,-,N/A,,Mist,0,2012-10-06 07:15:00
2:35 AM,66.4,66.4,100,30.02,0.2,Calm,Calm,-,N/A,Fog,Fog,0,2012-10-06 07:35:00
2:55 AM,65.5,65.5,100,30.01,0.5,Calm,Calm,-,N/A,Fog,Fog,0,2012-10-06 07:55:00
3:15 AM,65.1,65.1,100,30.01,0.2,Calm,Calm,-,N/A,Fog,Fog,0,2012-10-06 08:15:00
3:35 AM,66.2,66.2,100,30.00,0.5,Calm,Calm,-,N/A,Fog,Fog,0,2012-10-06 08:35:00
3:55 AM,65.5,65.5,100,30.00,1.0,Calm,Calm,-,N/A,,Mostly Cloudy,0,2012-10-06 08:55:00
4:15 AM,65.1,65.1,100,30.00,0.2,Calm,Calm,-,N/A,Fog,Fog,0,2012-10-06 09:15:00
4:35 AM,65.3,65.3,100,30.00,3.0,Calm,Calm,-,N/A,,Scattered Clouds,0,2012-10-06 09:35:00
4:55 AM,64.4,64.4,100,30.00,0.5,Calm,Calm,-,N/A,Fog,Fog,0,2012-10-06 09:55:00
5:15 AM,64.2,64.2,100,30.01,0.2,Calm,Calm,-,N/A,Fog,Fog,0,2012-10-06 10:15:00
5:35 AM,64.0,64.0,100,30.02,0.5,Calm,Calm,-,N/A,Fog,Fog,0,2012-10-06 10:35:00
5:55 AM,65.3,65.3,100,30.02,1.0,Calm,Calm,-,N/A,,Mostly Cloudy,0,2012-10-06 10:55:00
6:15 AM,64.2,64.2,100,30.02,0.5,Calm,Calm,-,N/A,Fog,Fog,0,2012-10-06 11:15:00
6:55 AM,63.3,63.3,100,30.03,0.8,Calm,Calm,-,N/A,,Overcast,0,2012-10-06 11:55:00
7:15 AM,63.9,63.9,100,30.03,0.2,Calm,Calm,-,N/A,Fog,Fog,0,2012-10-06 12:15:00
7:35 AM,64.4,64.4,100,30.03,0.2,Calm,Calm,-,N/A,Fog,Fog,0,2012-10-06 12:35:00
7:55 AM,65.7,65.7,100,30.03,0.2,Calm,Calm,-,N/A,Fog,Fog,0,2012-10-06 12:55:00
8:15 AM,67.6,67.6,100,30.03,0.2,Calm,Calm,-,N/A,Fog,Fog,0,2012-10-06 13:15:00
8:35 AM,69.1,69.1,100,30.04,0.2,Calm,Calm,-,N/A,Fog,Fog,0,2012-10-06 13:35:00
9:15 AM,73.0,73.0,100,30.05,7.0,Calm,Calm,-,N/A,,Scattered Clouds,0,2012-10-06 14:15:00
9:35 AM,74.3,74.3,100,30.05,10.0,North,11.5,-,N/A,,Scattered Clouds,350,2012-10-06 14:35:00
9:55 AM,74.3,74.3,100,30.05,10.0,NNE,5.8,-,N/A,,Scattered Clouds,20,2012-10-06 14:55:00
10:15 AM,75.2,74.8,99,30.05,10.0,NNE,5.8,-,N/A,,Scattered Clouds,20,2012-10-06 15:15:00
10:35 AM,79.3,71.2,76,30.05,10.0,Calm,Calm,-,N/A,,Clear,0,2012-10-06 15:35:00
10:55 AM,80.8,70.3,70,30.05,10.0,Calm,Calm,-,N/A,,Clear,0,2012-10-06 15:55:00
11:15 AM,82.6,69.4,64,30.04,10.0,Calm,Calm,-,N/A,,Clear,0,2012-10-06 16:15:00
11:35 AM,82.9,69.1,63,30.04,10.0,Calm,Calm,-,N/A,,Clear,0,2012-10-06 16:35:00
11:55 AM,81.7,68.2,63,30.03,10.0,NNW,3.5,-,N/A,,Mostly Cloudy,330,2012-10-06 16:55:00
12:15 PM,83.1,69.4,63,30.03,10.0,WNW,6.9,-,N/A,,Mostly Cloudy,300,2012-10-06 17:15:00
12:35 PM,84.6,69.8,61,30.02,10.0,North,4.6,-,N/A,,Mostly Cloudy,10,2012-10-06 17:35:00
12:55 PM,84.6,69.6,61,30.02,10.0,NW,4.6,-,N/A,,Scattered Clouds,310,2012-10-06 17:55:00
1:15 PM,84.9,68.7,58,30.00,10.0,WSW,3.5,-,N/A,,Scattered Clouds,250,2012-10-06 18:15:00
1:35 PM,83.5,68.5,61,29.99,10.0,WNW,5.8,-,N/A,,Mostly Cloudy,290,2012-10-06 18:35:00
1:55 PM,84.4,72.1,67,29.99,10.0,North,11.5,16.1,N/A,,Mostly Cloudy,360,2012-10-06 18:55:00
2:15 PM,81.9,71.4,70,29.98,10.0,North,6.9,-,N/A,,Overcast,350,2012-10-06 19:15:00
2:35 PM,83.1,71.2,67,29.97,10.0,North,6.9,-,N/A,,Overcast,10,2012-10-06 19:35:00
2:55 PM,81.9,70.9,69,29.97,10.0,North,11.5,-,N/A,,Mostly Cloudy,350,2012-10-06 19:55:00
3:15 PM,81.1,70.5,70,29.97,10.0,NNW,6.9,-,N/A,,Mostly Cloudy,340,2012-10-06 20:15:00
3:35 PM,83.5,70.5,65,29.97,10.0,NNW,9.2,-,N/A,,Scattered Clouds,340,2012-10-06 20:35:00
3:55 PM,83.3,70.3,65,29.97,10.0,NNW,8.1,-,N/A,,Scattered Clouds,340,2012-10-06 20:55:00
4:15 PM,83.3,70.0,64,29.97,10.0,North,8.1,-,N/A,,Clear,360,2012-10-06 21:15:00
4:35 PM,82.8,69.8,65,29.96,10.0,North,8.1,-,N/A,,Clear,360,2012-10-06 21:35:00
4:55 PM,82.4,69.6,65,29.96,10.0,North,8.1,-,N/A,,Clear,360,2012-10-06 21:55:00
5:15 PM,82.0,69.1,65,29.96,10.0,NNE,8.1,-,N/A,,Clear,20,2012-10-06 22:15:00
5:35 PM,81.5,69.1,66,29.96,10.0,North,6.9,-,N/A,,Clear,360,2012-10-06 22:35:00
6:15 PM,79.5,69.4,71,29.97,10.0,North,5.8,-,N/A,,Clear,10,2012-10-06 23:15:00
6:35 PM,77.7,69.1,75,29.98,10.0,North,4.6,-,N/A,,Clear,10,2012-10-06 23:35:00
6:55 PM,76.3,68.9,78,29.98,10.0,NNE,5.8,-,N/A,,Clear,20,2012-10-06 23:55:00
7:15 PM,75.4,68.0,78,29.99,10.0,NNE,8.1,-,N/A,,Clear,20,2012-10-07 00:15:00
7:35 PM,74.5,67.3,78,29.99,10.0,NNE,6.9,-,N/A,,Clear,20,2012-10-07 00:35:00
7:55 PM,73.2,66.4,79,30.00,10.0,NNE,6.9,-,N/A,,Clear,30,2012-10-07 00:55:00
8:15 PM,71.8,64.6,78,30.01,10.0,NNE,8.1,-,N/A,,Clear,20,2012-10-07 01:15:00
8:35 PM,70.5,63.9,79,30.02,10.0,North,11.5,-,N/A,,Clear,10,2012-10-07 01:35:00
8:55 PM,69.4,63.5,81,30.03,10.0,North,8.1,-,N/A,,Clear,10,2012-10-07 01:55:00
9:15 PM,68.0,62.2,82,30.03,10.0,North,11.5,-,N/A,,Clear,10,2012-10-07 02:15:00
9:35 PM,66.4,61.7,85,30.04,10.0,North,6.9,-,N/A,,Clear,10,2012-10-07 02:35:00
11:15 PM,61.0,58.3,91,30.06,10.0,North,17.3,20.7,N/A,,Mostly Cloudy,360,2012-10-07 04:15:00
11:35 PM,60.8,58.1,91,30.05,10.0,North,12.7,19.6,N/A,,Overcast,10,2012-10-07 04:35:00
11:55 PM,60.4,58.1,92,30.06,10.0,North,13.8,18.4,N/A,,Overcast,360,2012-10-07 04:55:00